createdAt,value
2023-02-28T00:01:34.248Z,78.69
2023-02-28T00:04:01.451Z,77.43
2023-02-28T00:06:28.854Z,76.98
2023-02-28T00:08:55.900Z,77.12
2023-02-28T00:11:24.354Z,77.08
2023-02-28T00:13:51.677Z,77.92
2023-02-28T00:16:22.918Z,78.29
2023-02-28T00:18:50.893Z,78.71
2023-02-28T00:21:19.009Z,78.07
2023-02-28T00:23:46.111Z,77.87
2023-02-28T00:26:13.461Z,78.88
2023-02-28T00:28:40.375Z,79.64
2023-02-28T00:31:07.472Z,79.16
2023-02-28T00:33:34.417Z,78.97
2023-02-28T00:36:10.653Z,79.57
2023-02-28T00:38:39.523Z,77.95
2023-02-28T00:41:07.418Z,78.71
2023-02-28T00:43:37.342Z,79.37
2023-02-28T00:46:06.328Z,79.49
2023-02-28T00:48:33.782Z,79.76
2023-02-28T00:51:01.248Z,79.38
2023-02-28T00:53:28.296Z,79.56
2023-02-28T00:55:55.239Z,79.58
2023-02-28T00:58:22.306Z,79.11
2023-02-28T01:00:50.139Z,79.95
2023-02-28T01:03:19.700Z,81.00
2023-02-28T01:05:47.602Z,81.06
2023-02-28T01:08:15.813Z,81.35
2023-02-28T01:10:43.631Z,81.95
2023-02-28T01:13:11.223Z,82.13
2023-02-28T01:15:51.324Z,82.40
2023-02-28T01:18:18.957Z,81.89
2023-02-28T01:20:47.132Z,81.93
2023-02-28T01:23:14.111Z,81.25
2023-02-28T01:25:41.509Z,81.42
2023-02-28T01:28:08.465Z,81.50
2023-02-28T01:30:35.815Z,81.85
2023-02-28T01:33:03.851Z,81.68
2023-02-28T01:35:34.927Z,82.83
2023-02-28T01:38:15.733Z,82.51
2023-02-28T01:40:47.660Z,83.08
2023-02-28T01:43:28.396Z,82.60
2023-02-28T01:45:57.745Z,82.70
2023-02-28T01:48:35.592Z,82.59
2023-02-28T01:51:11.269Z,83.55
2023-02-28T01:53:52.510Z,83.43
2023-02-28T01:56:25.497Z,84.25
2023-02-28T01:58:54.276Z,84.56
2023-02-28T02:01:27.846Z,84.22
2023-02-28T02:04:02.709Z,84.43
2023-02-28T02:06:45.686Z,84.92
2023-02-28T02:09:13.389Z,85.09
2023-02-28T02:11:43.848Z,85.50
2023-02-28T02:14:42.932Z,85.66
2023-02-28T02:17:40.929Z,86.42
2023-02-28T02:20:44.891Z,86.67
2023-02-28T02:23:36.690Z,86.47
2023-02-28T02:26:40.997Z,87.47
2023-02-28T02:29:32.319Z,87.41
2023-02-28T02:32:21.825Z,86.99
2023-02-28T02:35:13.736Z,88.28
2023-02-28T02:38:14.645Z,87.10
2023-02-28T02:41:11.678Z,87.87
2023-02-28T02:44:19.749Z,87.93
2023-02-28T02:46:48.656Z,88.05
2023-02-28T02:49:29.762Z,88.07
2023-02-28T02:51:59.306Z,88.21
2023-02-28T02:54:31.638Z,88.87
2023-02-28T02:57:05.009Z,88.44
2023-02-28T02:59:33.321Z,88.42
2023-02-28T03:02:05.598Z,88.93
2023-02-28T03:04:41.606Z,89.43
2023-02-28T03:07:08.667Z,89.11
2023-02-28T03:09:39.544Z,90.07
2023-02-28T03:12:13.189Z,90.67
2023-02-28T03:15:11.091Z,91.87
2023-02-28T03:18:31.718Z,91.87
2023-02-28T03:21:34.232Z,91.16
2023-02-28T03:24:38.194Z,90.78
2023-02-28T03:27:30.977Z,90.52
2023-02-28T03:30:25.304Z,90.38
2023-02-28T03:33:07.598Z,90.35
2023-02-28T03:35:41.724Z,90.66
2023-02-28T03:38:32.996Z,91.19
2023-02-28T03:41:23.470Z,91.16
2023-02-28T03:44:26.842Z,91.45
2023-02-28T03:47:25.358Z,91.04
2023-02-28T03:50:05.102Z,91.46
2023-02-28T03:52:36.535Z,91.71
2023-02-28T03:55:11.509Z,92.50
2023-02-28T03:58:03.034Z,92.24
2023-02-28T04:00:39.654Z,93.05
2023-02-28T04:03:07.082Z,92.75
2023-02-28T04:05:49.776Z,92.41
2023-02-28T04:08:16.800Z,93.28
2023-02-28T04:10:51.909Z,92.98
2023-02-28T04:13:18.867Z,93.24
2023-02-28T04:15:45.855Z,93.45
2023-02-28T04:18:12.872Z,93.61
2023-02-28T04:20:39.899Z,93.53
2023-02-28T04:23:06.787Z,93.00
2023-02-28T04:25:33.700Z,93.07
2023-02-28T04:28:01.650Z,92.81
2023-02-28T04:30:28.670Z,92.88
2023-02-28T04:32:55.536Z,93.08
2023-02-28T04:35:22.502Z,92.78
2023-02-28T04:37:49.394Z,93.29
2023-02-28T04:40:16.640Z,93.45
2023-02-28T04:42:43.574Z,93.22
2023-02-28T04:45:11.259Z,93.04
2023-02-28T04:47:38.352Z,93.18
2023-02-28T04:50:05.914Z,93.37
2023-02-28T04:52:32.913Z,92.36
2023-02-28T04:54:59.805Z,92.58
2023-02-28T04:57:26.800Z,92.16
2023-02-28T04:59:54.114Z,92.18
2023-02-28T05:02:22.143Z,91.68
2023-02-28T05:04:49.162Z,92.04
2023-02-28T05:07:17.175Z,92.20
2023-02-28T05:09:44.161Z,92.13
2023-02-28T05:12:11.419Z,92.67
2023-02-28T05:14:38.343Z,92.47
2023-02-28T05:17:05.277Z,91.64
2023-02-28T05:19:32.155Z,92.73
2023-02-28T05:21:59.230Z,92.49
2023-02-28T05:24:26.323Z,92.76
2023-02-28T05:26:55.528Z,92.56
2023-02-28T05:29:23.109Z,92.52
2023-02-28T05:31:50.349Z,93.00
2023-02-28T05:34:17.438Z,93.08
2023-02-28T05:36:44.456Z,93.65
2023-02-28T05:39:13.697Z,93.50
2023-02-28T05:41:42.824Z,94.34
2023-02-28T05:44:10.573Z,94.45
2023-02-28T05:46:37.545Z,94.35
2023-02-28T05:49:04.740Z,94.50
2023-02-28T05:51:32.030Z,94.17
2023-02-28T05:54:03.572Z,94.19
2023-02-28T05:56:30.801Z,93.81
2023-02-28T05:58:57.943Z,93.89
2023-02-28T06:01:32.576Z,94.05
2023-02-28T06:04:01.638Z,94.27
2023-02-28T06:06:30.461Z,94.33
2023-02-28T06:08:58.237Z,93.98
2023-02-28T06:11:28.866Z,93.18
2023-02-28T06:14:01.500Z,93.38
2023-02-28T06:16:31.190Z,93.50
2023-02-28T06:19:04.430Z,93.40
2023-02-28T06:21:32.342Z,93.35
2023-02-28T06:23:59.859Z,93.38
2023-02-28T06:26:26.916Z,92.84
2023-02-28T06:28:54.562Z,92.07
2023-02-28T06:31:23.062Z,92.24
2023-02-28T06:33:51.099Z,90.67
2023-02-28T06:36:18.874Z,91.77
2023-02-28T06:38:46.032Z,92.55
2023-02-28T06:41:12.972Z,91.92
2023-02-28T06:43:43.223Z,91.38
2023-02-28T06:46:14.491Z,91.73
2023-02-28T06:48:43.522Z,92.00
2023-02-28T06:51:17.590Z,91.89
2023-02-28T06:53:44.984Z,91.21
2023-02-28T06:56:14.786Z,90.65
2023-02-28T06:58:42.048Z,91.07
2023-02-28T07:01:09.922Z,89.83
2023-02-28T07:03:37.721Z,91.32
2023-02-28T07:06:06.440Z,90.96
2023-02-28T07:08:35.024Z,91.57
2023-02-28T07:11:02.019Z,91.22
2023-02-28T07:13:29.063Z,90.49
2023-02-28T07:16:02.967Z,90.77
2023-02-28T07:18:30.429Z,91.62
2023-02-28T07:20:57.774Z,90.85
2023-02-28T07:23:25.239Z,91.23
2023-02-28T07:25:53.037Z,90.24
2023-02-28T07:28:19.996Z,90.95
2023-02-28T07:30:47.136Z,90.55
2023-02-28T07:33:14.077Z,90.53
2023-02-28T07:35:41.533Z,90.13
2023-02-28T07:38:08.868Z,89.68
2023-02-28T07:40:37.702Z,89.39
2023-02-28T07:43:04.963Z,89.35
2023-02-28T07:45:35.294Z,86.77
2023-02-28T07:48:02.648Z,87.71
2023-02-28T07:50:32.698Z,84.93
2023-02-28T07:53:00.601Z,83.67
2023-02-28T07:55:28.219Z,82.39
2023-02-28T07:57:55.407Z,81.06
2023-02-28T08:00:23.041Z,81.59
2023-02-28T08:02:50.153Z,81.69
2023-02-28T08:05:18.832Z,80.96
2023-02-28T08:07:48.597Z,81.38
2023-02-28T08:10:15.955Z,80.59
2023-02-28T08:12:42.899Z,80.76
2023-02-28T08:15:10.348Z,80.00
2023-02-28T08:17:37.266Z,81.17
2023-02-28T08:20:05.194Z,80.29
2023-02-28T08:22:32.216Z,80.72
2023-02-28T08:24:59.219Z,79.67
2023-02-28T08:27:26.256Z,80.27
2023-02-28T08:29:53.416Z,79.06
2023-02-28T08:32:29.277Z,80.35
2023-02-28T08:34:57.089Z,78.94
2023-02-28T08:37:24.323Z,80.35
2023-02-28T08:39:52.747Z,79.15
2023-02-28T08:42:21.237Z,78.99
2023-02-28T08:44:48.144Z,78.86
2023-02-28T08:47:15.537Z,77.56
2023-02-28T08:49:42.468Z,76.99
2023-02-28T08:52:09.644Z,77.16
2023-02-28T08:54:37.196Z,76.28
2023-02-28T08:57:04.916Z,76.32
2023-02-28T08:59:31.872Z,75.41
2023-02-28T09:01:58.887Z,76.13
2023-02-28T09:04:26.210Z,74.94
2023-02-28T09:06:53.348Z,75.30
2023-02-28T09:09:20.375Z,74.88
2023-02-28T09:11:47.446Z,75.93
2023-02-28T09:14:14.396Z,75.01
2023-02-28T09:16:41.510Z,75.54
2023-02-28T09:19:13.076Z,74.08
2023-02-28T09:21:40.236Z,73.86
2023-02-28T09:24:08.112Z,73.63
2023-02-28T09:26:42.685Z,74.31
2023-02-28T09:29:15.515Z,73.36
2023-02-28T09:31:42.570Z,73.07
2023-02-28T09:34:09.804Z,73.13
2023-02-28T09:36:45.189Z,72.63
2023-02-28T09:39:15.458Z,72.75
2023-02-28T09:41:51.444Z,72.55
2023-02-28T09:44:33.926Z,72.50
2023-02-28T09:47:30.134Z,71.90
2023-02-28T09:50:04.402Z,71.37
2023-02-28T09:52:33.478Z,71.30
2023-02-28T09:55:46.244Z,70.67
2023-02-28T09:58:33.272Z,70.46
2023-02-28T10:01:11.794Z,69.42
2023-02-28T10:03:50.925Z,69.06
2023-02-28T10:06:21.818Z,69.28
2023-02-28T10:09:10.256Z,70.55
2023-02-28T10:11:39.452Z,68.08
2023-02-28T10:14:15.327Z,69.67
2023-02-28T10:16:48.902Z,68.01
2023-02-28T10:20:09.038Z,68.17
2023-02-28T10:22:43.911Z,68.68
2023-02-28T10:25:39.099Z,67.81
2023-02-28T10:28:08.963Z,68.08
2023-02-28T10:30:43.848Z,67.78
2023-02-28T10:33:33.234Z,69.27
2023-02-28T10:36:00.766Z,69.12
2023-02-28T10:38:37.667Z,69.76
2023-02-28T10:41:30.507Z,70.15
2023-02-28T10:44:22.768Z,69.30
2023-02-28T10:46:52.271Z,69.40
2023-02-28T10:49:25.647Z,68.91
2023-02-28T10:51:59.175Z,69.27
2023-02-28T10:54:36.406Z,69.40
2023-02-28T10:57:22.115Z,68.95
2023-02-28T10:59:55.976Z,69.43
2023-02-28T11:05:33.573Z,67.10
2023-02-28T11:08:18.519Z,67.96
2023-02-28T11:10:49.669Z,67.58
2023-02-28T11:13:23.997Z,68.05
2023-02-28T11:15:55.678Z,66.76
2023-02-28T11:18:40.397Z,66.30
2023-02-28T11:21:08.819Z,65.99
2023-02-28T11:23:38.202Z,66.17
2023-02-28T11:26:06.065Z,66.94
2023-02-28T11:28:42.414Z,67.24
2023-02-28T11:31:16.818Z,67.69
2023-02-28T11:33:53.517Z,67.65
2023-02-28T11:36:30.689Z,66.08
2023-02-28T11:39:05.188Z,64.97
2023-02-28T11:41:52.426Z,63.34
2023-02-28T11:44:34.336Z,63.34
2023-02-28T11:47:13.950Z,65.90
2023-02-28T11:50:17.658Z,66.56
2023-02-28T11:53:14.760Z,65.99
2023-02-28T11:56:45.826Z,67.57
2023-02-28T11:59:52.698Z,64.15
2023-02-28T12:02:35.039Z,65.01
2023-02-28T12:05:30.743Z,64.02
2023-02-28T12:08:23.927Z,63.82
2023-02-28T12:11:20.809Z,64.92
2023-02-28T12:13:56.455Z,64.51
2023-02-28T12:16:29.224Z,64.88
2023-02-28T12:19:26.609Z,65.98
2023-02-28T12:22:22.196Z,64.04
2023-02-28T12:25:06.368Z,63.21
2023-02-28T12:27:38.963Z,62.30
2023-02-28T12:30:29.474Z,65.67
2023-02-28T12:33:15.406Z,63.11
2023-02-28T12:35:50.912Z,62.44
2023-02-28T12:38:27.174Z,63.68
2023-02-28T12:41:17.846Z,64.08
2023-02-28T12:43:50.841Z,64.33
2023-02-28T12:46:38.360Z,64.25
2023-02-28T12:49:34.253Z,62.85
2023-02-28T12:52:03.404Z,62.00
2023-02-28T12:54:58.368Z,62.88
2023-02-28T12:57:42.761Z,62.87
2023-02-28T13:00:23.130Z,63.82
2023-02-28T13:03:20.383Z,62.82
2023-02-28T13:06:14.952Z,62.27
2023-02-28T13:09:03.958Z,62.42
2023-02-28T13:11:47.501Z,64.84
2023-02-28T13:14:38.637Z,64.21
2023-02-28T13:17:11.123Z,63.85
2023-02-28T13:19:55.571Z,63.50
2023-02-28T13:22:46.734Z,63.94
2023-02-28T13:25:35.415Z,64.48
2023-02-28T13:28:12.933Z,62.92
2023-02-28T13:30:52.648Z,63.40
2023-02-28T13:33:29.863Z,62.80
2023-02-28T13:36:19.567Z,62.59
2023-02-28T13:39:05.134Z,60.97
2023-02-28T13:41:32.275Z,61.42
2023-02-28T13:44:07.899Z,60.86
2023-02-28T13:46:49.970Z,61.04
2023-02-28T13:49:31.003Z,62.22
2023-02-28T13:52:20.403Z,61.14
2023-02-28T13:55:05.929Z,61.73
2023-02-28T13:58:00.425Z,62.15
2023-02-28T14:00:43.030Z,61.86
2023-02-28T14:03:44.129Z,61.88
2023-02-28T14:06:24.777Z,61.61
2023-02-28T14:09:17.196Z,62.93
2023-02-28T14:11:46.981Z,62.47
2023-02-28T14:14:35.878Z,61.37
2023-02-28T14:17:06.962Z,61.60
2023-02-28T14:19:38.064Z,61.34
2023-02-28T14:22:38.729Z,62.84
2023-02-28T14:26:18.636Z,62.78
2023-02-28T14:29:16.386Z,64.38
2023-02-28T14:32:03.579Z,61.61
2023-02-28T14:37:40.266Z,62.01
2023-02-28T14:40:19.763Z,60.93
2023-02-28T14:43:02.373Z,61.63
2023-02-28T14:45:35.933Z,63.21
2023-02-28T14:48:05.314Z,61.81
2023-02-28T14:50:38.227Z,62.46
2023-02-28T14:53:07.805Z,61.87
2023-02-28T14:55:38.284Z,60.69
2023-02-28T14:58:18.862Z,60.84
2023-02-28T15:00:52.078Z,61.29
2023-02-28T15:03:39.600Z,60.34
2023-02-28T15:06:18.436Z,61.62
2023-02-28T15:08:46.840Z,61.34
2023-02-28T15:11:20.191Z,62.10
2023-02-28T15:13:52.661Z,61.42
2023-02-28T15:16:36.973Z,61.77
2023-02-28T15:19:14.030Z,61.99
2023-02-28T15:21:46.668Z,61.92
2023-02-28T15:24:28.832Z,62.46
2023-02-28T15:27:00.783Z,61.75
2023-02-28T15:29:30.532Z,62.50
2023-02-28T15:32:06.406Z,62.73
2023-02-28T15:34:44.404Z,61.90
2023-02-28T15:37:33.540Z,61.95
2023-02-28T15:40:29.405Z,62.59
2023-02-28T15:43:31.039Z,62.09
2023-02-28T15:46:08.548Z,61.76
2023-02-28T15:48:52.948Z,61.96
2023-02-28T15:51:23.804Z,62.60
2023-02-28T15:54:03.585Z,62.49
2023-02-28T15:56:40.310Z,62.96
2023-02-28T15:59:15.148Z,62.72
2023-02-28T16:01:42.134Z,62.79
2023-02-28T16:04:20.714Z,63.30
2023-02-28T16:07:06.159Z,63.49
2023-02-28T16:09:35.237Z,63.50
2023-02-28T16:12:04.231Z,64.17
2023-02-28T16:14:31.958Z,64.10
2023-02-28T16:17:06.551Z,64.80
2023-02-28T16:19:34.842Z,65.24
2023-02-28T16:22:02.474Z,66.52
2023-02-28T16:24:29.512Z,65.57
2023-02-28T16:26:57.902Z,64.62
2023-02-28T16:29:34.812Z,64.74
2023-02-28T16:32:05.624Z,65.85
2023-02-28T16:34:32.646Z,64.90
2023-02-28T16:37:00.932Z,64.58
2023-02-28T16:39:30.143Z,65.92
2023-02-28T16:41:57.292Z,67.33
2023-02-28T16:44:36.306Z,66.70
2023-02-28T16:47:05.130Z,67.65
2023-02-28T16:49:32.178Z,68.38
2023-02-28T16:51:59.172Z,68.89
2023-02-28T16:54:26.276Z,69.24
2023-02-28T16:56:53.538Z,69.36
2023-02-28T16:59:27.596Z,69.00
2023-02-28T17:01:57.844Z,67.21
2023-02-28T17:04:27.117Z,68.36
2023-02-28T17:06:54.389Z,68.95
2023-02-28T17:09:26.292Z,69.14
2023-02-28T17:11:55.688Z,69.46
2023-02-28T17:14:24.346Z,69.28
2023-02-28T17:16:51.288Z,69.61
2023-02-28T17:19:18.666Z,69.44
2023-02-28T17:21:47.007Z,69.81
2023-02-28T17:24:16.448Z,69.58
2023-02-28T17:26:46.614Z,70.40
2023-02-28T17:29:21.257Z,70.61
2023-02-28T17:31:48.974Z,71.23
2023-02-28T17:34:19.323Z,71.11
2023-02-28T17:36:48.973Z,71.39
2023-02-28T17:39:25.109Z,72.28
2023-02-28T17:41:56.605Z,71.88
2023-02-28T17:44:25.988Z,71.53
2023-02-28T17:46:55.788Z,72.22
2023-02-28T17:49:23.175Z,71.91
2023-02-28T17:51:51.433Z,72.11
2023-02-28T17:54:19.301Z,71.58
2023-02-28T17:56:46.988Z,71.17
2023-02-28T17:59:14.123Z,72.23
2023-02-28T18:01:41.304Z,72.26
2023-02-28T18:04:09.275Z,72.42
2023-02-28T18:06:48.401Z,73.07
2023-02-28T18:09:18.037Z,72.50
2023-02-28T18:11:49.088Z,72.80
2023-02-28T18:14:18.027Z,72.44
2023-02-28T18:16:46.276Z,72.33
2023-02-28T18:19:17.617Z,72.71
2023-02-28T18:21:48.765Z,72.87
2023-02-28T18:24:18.018Z,73.04
2023-02-28T18:26:45.122Z,73.01
2023-02-28T18:29:23.276Z,73.71
2023-02-28T18:31:50.807Z,73.61
2023-02-28T18:34:18.121Z,73.74
2023-02-28T18:36:47.178Z,73.64
2023-02-28T18:39:15.689Z,74.18
2023-02-28T18:41:42.621Z,74.98
2023-02-28T18:44:18.980Z,74.76
2023-02-28T18:46:46.721Z,75.11
2023-02-28T18:49:15.792Z,73.61
2023-02-28T18:51:45.338Z,74.61
2023-02-28T18:54:14.894Z,74.95
2023-02-28T18:56:42.277Z,74.87
2023-02-28T18:59:09.425Z,75.22
2023-02-28T19:01:36.486Z,76.24
2023-02-28T19:04:04.854Z,76.91
2023-02-28T19:06:33.764Z,76.26
2023-02-28T19:09:03.990Z,77.26
2023-02-28T19:11:31.858Z,77.25
2023-02-28T19:13:59.117Z,76.62
2023-02-28T19:16:27.917Z,75.70
2023-02-28T19:18:55.604Z,76.62
2023-02-28T19:21:24.912Z,77.19
2023-02-28T19:23:52.454Z,77.01
2023-02-28T19:26:24.825Z,77.07
2023-02-28T19:28:51.919Z,76.98
2023-02-28T19:31:25.100Z,76.04
2023-02-28T19:33:53.255Z,75.92
2023-02-28T19:36:21.450Z,76.61
2023-02-28T19:38:49.135Z,76.87
2023-02-28T19:41:18.204Z,76.88
2023-02-28T19:43:45.792Z,76.66
2023-02-28T19:46:13.733Z,76.28
2023-02-28T19:48:42.753Z,75.83
2023-02-28T19:51:12.578Z,75.04
2023-02-28T19:53:41.958Z,75.49
2023-02-28T19:56:10.159Z,75.63
2023-02-28T19:58:37.871Z,75.82
2023-02-28T20:01:19.553Z,75.40
2023-02-28T20:03:51.078Z,76.06
2023-02-28T20:06:18.676Z,75.86
2023-02-28T20:08:45.616Z,75.77
2023-02-28T20:11:16.097Z,75.45
2023-02-28T20:13:44.073Z,75.68
2023-02-28T20:16:13.791Z,77.15
2023-02-28T20:18:41.885Z,77.84
2023-02-28T20:21:10.570Z,77.80
2023-02-28T20:23:41.755Z,77.50
2023-02-28T20:26:09.842Z,77.30
2023-02-28T20:28:37.717Z,77.79
2023-02-28T20:31:16.526Z,76.85
2023-02-28T20:33:46.693Z,76.53
2023-02-28T20:36:15.685Z,77.92
2023-02-28T20:38:43.518Z,78.06
2023-02-28T20:41:10.528Z,78.47
2023-02-28T20:43:40.526Z,78.66
2023-02-28T20:46:08.113Z,78.11
2023-02-28T20:48:36.434Z,78.57
2023-02-28T20:51:05.428Z,77.26
2023-02-28T20:53:34.841Z,77.40
2023-02-28T20:56:04.525Z,77.89
2023-02-28T20:58:37.638Z,77.48
2023-02-28T21:01:18.484Z,78.17
2023-02-28T21:03:48.913Z,77.58
2023-02-28T21:06:18.258Z,77.94
2023-02-28T21:08:45.528Z,77.58
2023-02-28T21:11:31.883Z,78.42
2023-02-28T21:14:02.198Z,78.65
2023-02-28T21:16:29.938Z,78.79
2023-02-28T21:19:04.009Z,78.55
2023-02-28T21:21:43.936Z,79.52
2023-02-28T21:24:19.427Z,80.51
2023-02-28T21:26:47.664Z,80.47
2023-02-28T21:29:15.610Z,80.71
2023-02-28T21:31:42.992Z,80.88
2023-02-28T21:34:12.444Z,81.21
2023-02-28T21:36:45.709Z,81.95
2023-02-28T21:39:30.094Z,82.04
2023-02-28T21:42:03.356Z,82.19
2023-02-28T21:44:32.038Z,82.39
2023-02-28T21:47:02.012Z,81.84
2023-02-28T21:49:29.662Z,81.61
2023-02-28T21:51:57.528Z,82.82
2023-02-28T21:54:25.937Z,82.45
2023-02-28T21:56:53.082Z,82.11
2023-02-28T21:59:20.306Z,82.11
2023-02-28T22:01:51.118Z,83.00
2023-02-28T22:04:22.114Z,82.64
2023-02-28T22:06:56.106Z,83.26
2023-02-28T22:09:23.572Z,83.15
2023-02-28T22:11:50.654Z,82.42
2023-02-28T22:14:18.025Z,82.31
2023-02-28T22:16:52.002Z,82.55
2023-02-28T22:19:21.248Z,83.17
2023-02-28T22:21:48.717Z,83.62
2023-02-28T22:24:17.675Z,84.57
2023-02-28T22:26:44.992Z,83.92
2023-02-28T22:29:14.198Z,83.44
2023-02-28T22:31:41.255Z,83.93
2023-02-28T22:34:11.536Z,82.93
2023-02-28T22:36:43.825Z,83.79
2023-02-28T22:39:12.065Z,83.82
2023-02-28T22:41:39.439Z,82.97
2023-02-28T22:44:07.315Z,83.01
2023-02-28T22:46:35.885Z,83.26
2023-02-28T22:49:04.917Z,83.81
2023-02-28T22:51:32.611Z,84.11
2023-02-28T22:53:59.703Z,83.77
2023-02-28T22:56:29.455Z,82.77
2023-02-28T22:58:59.509Z,85.51
2023-02-28T23:01:30.578Z,85.64
2023-02-28T23:03:58.380Z,84.89
2023-02-28T23:06:35.333Z,84.45
2023-02-28T23:09:06.816Z,84.83
2023-02-28T23:11:42.195Z,85.21
2023-02-28T23:14:12.651Z,85.35
2023-02-28T23:16:50.001Z,86.69
2023-02-28T23:19:29.535Z,87.24
2023-02-28T23:21:58.524Z,87.03
2023-02-28T23:24:27.957Z,87.46
2023-02-28T23:26:57.808Z,87.12
2023-02-28T23:29:25.852Z,86.89
2023-02-28T23:31:54.018Z,87.62
2023-02-28T23:34:30.267Z,87.36
2023-02-28T23:37:00.292Z,87.66
2023-02-28T23:39:29.628Z,87.45
2023-02-28T23:41:57.372Z,87.90
2023-02-28T23:44:25.731Z,87.59
2023-02-28T23:46:53.435Z,86.44
2023-02-28T23:49:21.805Z,86.79
2023-02-28T23:51:50.778Z,87.45
2023-02-28T23:54:18.892Z,86.95
2023-02-28T23:56:46.106Z,87.12
2023-02-28T23:59:13.156Z,86.98
